Have a Safe July 4th! 

Flight Track Log - Related Links

Times and Time Zones

All times are in EDT time to prevent confusion due to time zone crossing. See the OPT429 flight status page for this flight to view local times or setup timezone preferences in your user account.

Time Position Orientation Groundspeed Altitude Reporting Facility
EDT Latitude Longitude Course Direction KTS MPH feet Rate Location/Type
Sun 11:10:02 AM 42.2442 -83.5475 295° West 153 176 1,400  Level Cleveland Center
Sun 11:10:27 AM 42.2511 -83.5681 295° West 162 186 2,000 2,442 Climbing Cleveland Center
Sun 11:11:28 AM 42.2728 -83.6361 293° West 203 234 4,900 2,743 Climbing Cleveland Center
Sun 11:12:12 AM 42.2892 -83.6886 293° West 197 227 6,800 2,509 Climbing Cleveland Center
Sun 11:12:23 AM 42.2928 -83.7011 291° West 207 238 7,200 1,935 Climbing Cleveland Center
Sun 11:13:14 AM 42.3114 -83.7658 291° West 215 247 8,800 1,912 Climbing Cleveland Center
Sun 11:14:16 AM 42.3350 -83.8533 290° West 245 282 10,800 1,935 Climbing Cleveland Center
Sun 11:15:18 AM 42.3628 -83.9550 290° West 284 327 12,800 1,935 Climbing Cleveland Center
Sun 11:16:20 AM 42.3908 -84.0597 290° West 295 339 14,800 1,887 Climbing Cleveland Center
Sun 11:17:22 AM 42.4206 -84.1633 291° West 295 339 16,700 1,984 Climbing Cleveland Center
Sun 11:18:24 AM 42.4561 -84.2928 290° West 307 353 18,900 2,032 Climbing Cleveland Center
Sun 11:19:26 AM 42.4889 -84.4058 291° West 319 367 20,900 1,488 Climbing Cleveland Center
Sun 11:20:29 AM 42.5219 -84.5253 291° West 336 387 22,000 528 Climbing Cleveland Center
Sun 11:21:31 AM 42.5556 -84.6497 290° West 346 398 22,000  Level Cleveland Center
Sun 11:22:33 AM 42.5894 -84.7697 291° West 355 409 22,000  Level Cleveland Center
Sun 11:23:35 AM 42.6311 -84.9231 290° West 360 414 22,000  Level Cleveland Center
Sun 11:24:37 AM 42.6672 -85.0519 291° West 362 417 22,000  Level Cleveland Center
Sun 11:25:39 AM 42.7019 -85.1822 290° West 364 419 22,000  Level Cleveland Center
Sun 11:26:41 AM 42.7381 -85.3122 291° West 365 420 22,000  Level Cleveland Center
Sun 11:27:43 AM 42.7961 -85.4217 306° West 361 415 22,000  Level Cleveland Center
Sun 11:28:45 AM 42.8997 -85.5094 328° Northwest 365 420 22,000 -288 Level Cleveland Center
Sun 11:29:48 AM 42.9858 -85.5806 329° Northwest 365 420 21,400 -816 Descending Cleveland Center
Sun 11:30:50 AM 43.0714 -85.6519 329° Northwest 365 420 20,300 -1,306 Descending Cleveland Center
Sun 11:31:52 AM 43.1567 -85.7239 328° Northwest 365 420 18,700 -1,694 Descending Cleveland Center
Sun 11:32:54 AM 43.2381 -85.7919 329° Northwest 353 406 16,800 -2,081 Descending Cleveland Center
Sun 11:33:56 AM 43.3336 -85.8714 329° Northwest 339 390 14,400 -1,636 Descending Cleveland Center
Sun 11:35:06 AM 43.4250 -85.9475 329° Northwest 325 374 13,200 -636 Descending Chicago Center
Sun 11:36:08 AM 43.4953 -86.0061 329° Northwest 306 352 13,000 -97 Descending Chicago Center
Sun 11:37:10 AM 43.5636 -86.0647 328° Northwest 297 342 13,000  Level Chicago Center
Sun 11:38:12 AM 43.6314 -86.1225 328° Northwest 290 334 13,000 -452 Level Chicago Center
Sun 11:38:43 AM 43.6731 -86.1583 328° Northwest 290 334 12,300 -645 Descending Minneapolis Center
Sun 11:39:45 AM 43.7469 -86.1844 346° North 277 319 12,000 -726 Descending Minneapolis Center
Sun 11:40:47 AM 43.8122 -86.2033 348° North 249 287 10,800 -968 Descending Minneapolis Center
Sun 11:41:49 AM 43.8764 -86.2217 348° North 242 278 10,000 -1,548 Descending Minneapolis Center
Sun 11:42:51 AM 43.9328 -86.2353 350° North 216 249 7,600 -2,500 Descending Minneapolis Center
Sun 11:44:25 AM 43.9881 -86.3000 320° Northwest 201 231 3,500 -2,077 Descending Chicago Center
Sun 11:45:27 AM 43.9767 -86.3606 255° West 175 201 2,200 -1,258 Descending Chicago Center

Login

Don't have an account? Register now (free) for customized features, flight alerts, and more!